createdAt,value
2022-10-09T00:01:09.860Z,2.28
2022-10-09T00:03:38.489Z,2.95
2022-10-09T00:06:06.598Z,1.75
2022-10-09T00:08:34.817Z,2.22
2022-10-09T00:11:08.356Z,1.52
2022-10-09T00:13:35.390Z,2.60
2022-10-09T00:16:04.986Z,2.80
2022-10-09T00:18:32.160Z,1.70
2022-10-09T00:20:59.094Z,0.98
2022-10-09T00:23:26.217Z,1.10
2022-10-09T00:25:55.778Z,2.67
2022-10-09T00:28:24.152Z,1.80
2022-10-09T00:30:51.729Z,0.60
2022-10-09T00:33:19.882Z,1.20
2022-10-09T00:35:47.327Z,2.28
2022-10-09T00:38:14.213Z,0.93
2022-10-09T00:40:41.157Z,2.97
2022-10-09T00:43:16.143Z,1.45
2022-10-09T00:45:54.084Z,1.05
2022-10-09T00:48:22.880Z,2.45
2022-10-09T00:50:55.031Z,1.52
2022-10-09T00:53:24.347Z,2.25
2022-10-09T00:55:51.558Z,1.67
2022-10-09T00:58:19.002Z,2.08
2022-10-09T01:00:46.170Z,1.48
2022-10-09T01:03:13.016Z,0.70
2022-10-09T01:05:54.649Z,2.17
2022-10-09T01:08:30.035Z,1.92
2022-10-09T01:11:22.094Z,2.85
2022-10-09T01:14:00.868Z,2.03
2022-10-09T01:16:32.918Z,2.67
2022-10-09T01:19:30.790Z,1.08
2022-10-09T01:22:26.635Z,0.75
2022-10-09T01:25:08.317Z,2.22
2022-10-09T01:27:36.795Z,1.15
2022-10-09T01:30:08.783Z,1.77
2022-10-09T01:32:43.333Z,1.63
2022-10-09T01:35:13.001Z,3.72
2022-10-09T01:37:42.499Z,1.40
2022-10-09T01:40:10.686Z,1.45
2022-10-09T01:42:38.096Z,1.02
2022-10-09T01:45:05.298Z,0.70
2022-10-09T01:47:32.203Z,0.82
2022-10-09T01:50:20.428Z,1.60
2022-10-09T01:52:57.160Z,0.80
2022-10-09T01:55:30.147Z,1.10
2022-10-09T01:58:18.465Z,1.98
2022-10-09T02:00:58.727Z,1.13
2022-10-09T02:03:28.091Z,1.38
2022-10-09T02:05:56.622Z,1.98
2022-10-09T02:08:24.718Z,1.23
2022-10-09T02:10:55.880Z,0.63
2022-10-09T02:15:52.244Z,1.98
2022-10-09T02:18:37.484Z,0.95
2022-10-09T02:21:14.650Z,1.83
2022-10-09T02:23:43.269Z,1.02
2022-10-09T02:26:10.697Z,2.58
2022-10-09T02:28:40.436Z,0.82
2022-10-09T02:31:28.997Z,1.55
2022-10-09T02:34:01.445Z,1.00
2022-10-09T02:36:29.409Z,0.77
2022-10-09T02:38:57.309Z,2.03
2022-10-09T02:41:25.140Z,2.42
2022-10-09T02:43:52.461Z,2.05
2022-10-09T02:46:19.502Z,1.48
2022-10-09T02:48:46.528Z,2.03
2022-10-09T02:51:13.748Z,0.95
2022-10-09T02:53:40.706Z,1.23
2022-10-09T02:56:07.558Z,1.17
2022-10-09T02:58:35.452Z,2.88
2022-10-09T03:01:02.663Z,1.92
2022-10-09T03:03:29.458Z,0.88
2022-10-09T03:06:12.475Z,2.22
2022-10-09T03:08:41.687Z,0.95
2022-10-09T03:11:08.981Z,1.45
2022-10-09T03:13:35.920Z,0.90
2022-10-09T03:16:07.872Z,1.58
2022-10-09T03:18:35.918Z,1.83
2022-10-09T03:21:09.421Z,1.85
2022-10-09T03:23:36.564Z,1.15
2022-10-09T03:26:09.476Z,1.25
2022-10-09T03:28:38.528Z,1.27
2022-10-09T03:31:05.595Z,1.58
2022-10-09T03:33:33.420Z,2.25
2022-10-09T03:36:00.249Z,2.63
2022-10-09T03:38:27.090Z,2.35
2022-10-09T03:40:54.032Z,1.42
2022-10-09T03:43:21.214Z,1.50
2022-10-09T03:45:48.035Z,1.67
2022-10-09T03:48:15.254Z,1.70
2022-10-09T03:50:42.548Z,2.47
2022-10-09T03:53:11.622Z,2.15
2022-10-09T03:55:39.204Z,0.98
2022-10-09T03:58:06.645Z,2.42
2022-10-09T04:00:33.746Z,1.48
2022-10-09T04:03:00.756Z,2.80
2022-10-09T04:05:27.643Z,1.95
2022-10-09T04:07:54.505Z,3.05
2022-10-09T04:10:21.298Z,1.48
2022-10-09T04:12:48.395Z,1.35
2022-10-09T04:15:15.366Z,1.38
2022-10-09T04:17:42.157Z,2.45
2022-10-09T04:20:09.343Z,0.88
2022-10-09T04:22:36.193Z,1.48
2022-10-09T04:25:03.019Z,1.85
2022-10-09T04:27:29.938Z,1.83
2022-10-09T04:29:56.832Z,2.33
2022-10-09T04:32:23.686Z,2.47
2022-10-09T04:34:50.539Z,1.90
2022-10-09T04:37:17.483Z,1.52
2022-10-09T04:39:44.291Z,1.85
2022-10-09T04:42:11.197Z,2.00
2022-10-09T04:44:38.018Z,2.75
2022-10-09T04:47:07.088Z,3.10
2022-10-09T04:49:37.393Z,3.08
2022-10-09T04:52:04.252Z,1.50
2022-10-09T04:54:31.132Z,2.38
2022-10-09T04:56:57.955Z,3.13
2022-10-09T04:59:24.809Z,3.00
2022-10-09T05:01:51.724Z,1.85
2022-10-09T05:04:18.559Z,1.67
2022-10-09T05:06:45.395Z,2.67
2022-10-09T05:09:12.255Z,2.10
2022-10-09T05:11:42.439Z,1.50
2022-10-09T05:14:10.070Z,5.45
2022-10-09T05:17:00.899Z,3.53
2022-10-09T05:19:23.828Z,1.50
2022-10-09T05:21:50.683Z,2.42
2022-10-09T05:24:17.596Z,1.77
2022-10-09T05:26:44.379Z,2.25
2022-10-09T05:29:11.212Z,1.48
2022-10-09T05:31:38.254Z,3.65
2022-10-09T05:34:05.477Z,0.82
2022-10-09T05:36:32.507Z,3.40
2022-10-09T05:39:01.369Z,1.27
2022-10-09T05:41:29.884Z,1.95
2022-10-09T05:44:01.336Z,1.98
2022-10-09T05:46:30.035Z,5.85
2022-10-09T05:49:02.262Z,2.72
2022-10-09T05:51:34.283Z,1.38
2022-10-09T05:54:04.372Z,7.80
2022-10-09T05:56:37.332Z,11.02
2022-10-09T05:59:08.437Z,8.30
2022-10-09T06:04:04.619Z,1.50
2022-10-09T06:06:33.796Z,3.00
2022-10-09T06:09:00.627Z,3.92
2022-10-09T06:11:31.836Z,1.67
2022-10-09T06:14:00.448Z,1.77
2022-10-09T06:16:33.308Z,1.48
2022-10-09T06:19:00.963Z,2.30
2022-10-09T06:21:28.374Z,13.07
2022-10-09T06:24:00.478Z,4.20
2022-10-09T06:26:32.013Z,2.33
2022-10-09T06:29:01.080Z,7.25
2022-10-09T06:31:33.206Z,6.85
2022-10-09T06:34:01.816Z,0.93
2022-10-09T06:36:31.255Z,3.50
2022-10-09T06:39:00.775Z,3.58
2022-10-09T06:41:29.426Z,1.63
2022-10-09T06:43:58.931Z,3.58
2022-10-09T06:46:32.491Z,0.52
2022-10-09T06:49:00.932Z,1.70
2022-10-09T06:51:28.711Z,3.20
2022-10-09T06:53:58.754Z,5.97
2022-10-09T06:56:27.498Z,1.83
2022-10-09T06:58:54.502Z,2.38
2022-10-09T07:01:32.954Z,4.03
2022-10-09T07:04:07.317Z,2.83
2022-10-09T07:06:38.100Z,1.23
2022-10-09T07:09:07.701Z,1.00
2022-10-09T07:11:37.719Z,4.75
2022-10-09T07:14:07.552Z,5.65
2022-10-09T07:16:40.078Z,1.77
2022-10-09T07:19:11.383Z,1.60
2022-10-09T07:21:44.521Z,8.40
2022-10-09T07:24:12.993Z,4.22
2022-10-09T07:26:43.387Z,5.43
2022-10-09T07:29:13.465Z,4.35
2022-10-09T07:31:40.520Z,11.77
2022-10-09T07:34:08.078Z,7.97
2022-10-09T07:36:35.406Z,3.80
2022-10-09T07:39:03.020Z,3.65
2022-10-09T07:41:30.425Z,3.97
2022-10-09T07:43:58.056Z,4.07
2022-10-09T07:46:30.877Z,3.90
2022-10-09T07:49:00.201Z,5.85
2022-10-09T07:51:29.443Z,5.50
2022-10-09T07:53:57.606Z,3.92
2022-10-09T07:56:32.691Z,2.20
2022-10-09T07:59:02.704Z,3.80
2022-10-09T08:01:30.894Z,4.38
2022-10-09T08:03:59.440Z,2.72
2022-10-09T08:06:27.241Z,3.22
2022-10-09T08:08:56.180Z,5.30
2022-10-09T08:11:25.410Z,2.70
2022-10-09T08:13:53.511Z,2.75
2022-10-09T08:16:22.220Z,3.03
2022-10-09T08:18:49.439Z,3.65
2022-10-09T08:21:19.118Z,2.22
2022-10-09T08:23:46.583Z,1.88
2022-10-09T08:26:19.898Z,1.80
2022-10-09T08:28:51.997Z,2.38
2022-10-09T08:31:19.427Z,3.90
2022-10-09T08:33:46.701Z,1.98
2022-10-09T08:36:15.621Z,2.50
2022-10-09T08:38:47.911Z,4.30
2022-10-09T08:41:41.481Z,2.75
2022-10-09T08:44:19.393Z,4.72
2022-10-09T08:46:55.078Z,7.68
2022-10-09T08:49:48.104Z,3.85
2022-10-09T08:52:49.666Z,7.20
2022-10-09T08:55:29.009Z,7.53
2022-10-09T08:57:57.845Z,3.67
2022-10-09T09:00:29.343Z,4.30
2022-10-09T09:03:24.029Z,5.93
2022-10-09T09:06:17.303Z,3.85
2022-10-09T09:09:01.350Z,5.45
2022-10-09T09:11:38.277Z,5.97
2022-10-09T09:14:29.503Z,9.85
2022-10-09T09:17:05.276Z,8.05
2022-10-09T09:19:32.131Z,3.78
2022-10-09T09:21:59.537Z,7.22
2022-10-09T09:24:54.052Z,8.35
2022-10-09T09:27:26.516Z,6.00
2022-10-09T09:30:13.567Z,6.50
2022-10-09T09:32:44.624Z,2.78
2022-10-09T09:35:37.992Z,4.93
2022-10-09T09:38:04.962Z,10.90
2022-10-09T09:40:37.174Z,6.75
2022-10-09T09:43:22.141Z,1.92
2022-10-09T09:45:52.715Z,4.47
2022-10-09T09:48:27.055Z,4.80
2022-10-09T09:51:16.316Z,4.68
2022-10-09T09:53:44.911Z,6.38
2022-10-09T09:56:12.067Z,4.70
2022-10-09T09:58:46.202Z,22.05
2022-10-09T10:01:28.783Z,18.83
2022-10-09T10:03:59.832Z,14.02
2022-10-09T10:06:42.372Z,12.18
2022-10-09T10:09:18.393Z,14.15
2022-10-09T10:12:07.371Z,7.38
2022-10-09T10:14:35.881Z,9.30
2022-10-09T10:17:04.491Z,6.35
2022-10-09T10:19:42.119Z,6.05
2022-10-09T10:22:28.948Z,8.10
2022-10-09T10:24:59.513Z,8.98
2022-10-09T10:27:34.633Z,4.65
2022-10-09T10:30:05.608Z,4.32
2022-10-09T10:32:48.667Z,4.78
2022-10-09T10:35:19.430Z,2.90
2022-10-09T10:37:58.403Z,4.65
2022-10-09T10:40:33.157Z,3.13
2022-10-09T10:43:32.800Z,2.15
2022-10-09T10:46:22.895Z,5.38
2022-10-09T10:48:52.089Z,8.55
2022-10-09T10:51:44.649Z,8.93
2022-10-09T10:54:33.690Z,4.07
2022-10-09T10:57:22.081Z,4.00
2022-10-09T11:00:10.288Z,5.20
2022-10-09T11:03:37.353Z,5.93
2022-10-09T11:06:26.676Z,4.72
2022-10-09T11:09:18.618Z,9.07
2022-10-09T11:12:00.997Z,4.90
2022-10-09T11:15:03.213Z,4.03
2022-10-09T11:18:06.176Z,7.20
2022-10-09T11:20:45.078Z,7.13
2022-10-09T11:23:50.410Z,3.97
2022-10-09T11:26:50.014Z,8.05
2022-10-09T11:29:46.531Z,9.90
2022-10-09T11:32:16.893Z,8.88
2022-10-09T11:34:53.106Z,12.73
2022-10-09T11:37:25.922Z,34.30
2022-10-09T11:39:53.151Z,32.63
2022-10-09T11:42:24.043Z,120.00
2022-10-09T11:44:53.990Z,499.77
2022-10-09T11:47:30.003Z,402.77
2022-10-09T11:50:15.714Z,442.52
2022-10-09T11:53:12.087Z,396.70
2022-10-09T11:55:39.569Z,363.20
2022-10-09T11:58:19.149Z,308.55
2022-10-09T12:00:48.066Z,336.80
2022-10-09T12:03:35.063Z,258.75
2022-10-09T12:06:15.927Z,162.80
2022-10-09T12:09:02.117Z,167.98
2022-10-09T12:11:30.867Z,162.43
2022-10-09T12:14:04.732Z,154.18
2022-10-09T12:16:34.422Z,120.38
2022-10-09T12:19:05.267Z,134.48
2022-10-09T12:21:46.571Z,94.95
2022-10-09T12:24:22.386Z,87.65
2022-10-09T12:26:51.903Z,75.38
2022-10-09T12:29:28.453Z,67.53
2022-10-09T12:32:00.099Z,57.78
2022-10-09T12:34:36.579Z,60.40
2022-10-09T12:37:16.693Z,58.42
2022-10-09T12:39:45.725Z,42.22
2022-10-09T12:42:23.761Z,33.67
2022-10-09T12:44:54.470Z,28.05
2022-10-09T12:47:27.057Z,29.17
2022-10-09T12:50:03.527Z,28.17
2022-10-09T12:52:32.156Z,23.73
2022-10-09T12:54:59.193Z,21.02
2022-10-09T12:57:28.055Z,20.73
2022-10-09T12:59:56.843Z,16.20
2022-10-09T13:02:24.210Z,17.33
2022-10-09T13:04:57.225Z,20.00
2022-10-09T13:07:27.591Z,18.40
2022-10-09T13:10:02.820Z,9.88
2022-10-09T13:12:32.196Z,11.27
2022-10-09T13:15:06.238Z,9.43
2022-10-09T13:17:39.260Z,13.85
2022-10-09T13:20:12.846Z,21.38
2022-10-09T13:22:41.242Z,22.85
2022-10-09T13:25:10.020Z,9.38
2022-10-09T13:27:41.124Z,8.50
2022-10-09T13:32:37.053Z,11.07
2022-10-09T13:35:04.836Z,4.70
2022-10-09T13:37:32.026Z,6.00
2022-10-09T13:40:02.669Z,7.75
2022-10-09T13:42:37.427Z,7.20
2022-10-09T13:45:08.388Z,8.25
2022-10-09T13:47:36.352Z,9.95
2022-10-09T13:50:04.757Z,4.53
2022-10-09T13:52:32.916Z,6.25
2022-10-09T13:55:00.092Z,6.97
2022-10-09T13:57:27.443Z,7.38
2022-10-09T13:59:55.036Z,12.07
2022-10-09T14:02:22.648Z,12.80
2022-10-09T14:04:50.680Z,7.22
2022-10-09T14:07:20.987Z,4.53
2022-10-09T14:09:50.169Z,5.43
2022-10-09T14:12:18.966Z,10.32
2022-10-09T14:14:51.316Z,5.78
2022-10-09T14:17:18.967Z,4.53
2022-10-09T14:19:47.973Z,4.05
2022-10-09T14:22:16.629Z,11.80
2022-10-09T14:24:44.871Z,13.98
2022-10-09T14:27:12.474Z,2.88
2022-10-09T14:29:40.742Z,5.90
2022-10-09T14:32:10.321Z,2.38
2022-10-09T14:34:38.957Z,5.75
2022-10-09T14:37:23.835Z,2.78
2022-10-09T14:40:02.594Z,2.17
2022-10-09T14:42:30.829Z,4.75
2022-10-09T14:44:58.332Z,6.53
2022-10-09T14:47:25.832Z,8.02
2022-10-09T14:49:53.601Z,4.28
2022-10-09T14:52:21.868Z,2.55
2022-10-09T14:54:50.078Z,13.68
2022-10-09T14:57:18.194Z,3.75
2022-10-09T14:59:46.214Z,3.80
2022-10-09T15:02:16.778Z,2.10
2022-10-09T15:04:45.785Z,2.42
2022-10-09T15:07:17.842Z,4.70
2022-10-09T15:09:51.047Z,4.07
2022-10-09T15:12:22.526Z,8.15
2022-10-09T15:14:52.011Z,3.53
2022-10-09T15:17:21.807Z,5.32
2022-10-09T15:19:55.472Z,2.65
2022-10-09T15:22:29.586Z,3.63
2022-10-09T15:25:02.952Z,1.50
2022-10-09T15:27:30.954Z,1.83
2022-10-09T15:29:58.329Z,3.97
2022-10-09T15:32:26.882Z,1.85
2022-10-09T15:34:54.056Z,1.27
2022-10-09T15:37:22.046Z,3.30
2022-10-09T15:39:52.269Z,2.08
2022-10-09T15:42:20.378Z,4.95
2022-10-09T15:44:50.259Z,2.20
2022-10-09T15:47:39.289Z,2.63
2022-10-09T15:50:11.253Z,3.75
2022-10-09T15:52:40.029Z,8.32
2022-10-09T15:55:13.571Z,3.30
2022-10-09T15:57:43.517Z,5.82
2022-10-09T16:00:17.660Z,3.60
2022-10-09T16:02:47.005Z,3.22
2022-10-09T16:05:17.338Z,4.93
2022-10-09T16:07:44.896Z,3.88
2022-10-09T16:10:12.657Z,4.03
2022-10-09T16:12:41.734Z,3.63
2022-10-09T16:15:09.795Z,2.17
2022-10-09T16:17:37.170Z,3.30
2022-10-09T16:20:05.097Z,4.13
2022-10-09T16:22:33.509Z,5.53
2022-10-09T16:25:04.451Z,4.07
2022-10-09T16:27:32.108Z,4.18
2022-10-09T16:30:01.178Z,3.88
2022-10-09T16:32:31.848Z,2.67
2022-10-09T16:35:00.272Z,2.63
2022-10-09T16:37:35.323Z,6.35
2022-10-09T16:40:03.631Z,2.22
2022-10-09T16:42:31.497Z,9.43
2022-10-09T16:45:03.395Z,4.50
2022-10-09T16:47:30.819Z,11.85
2022-10-09T16:49:59.844Z,16.58
2022-10-09T16:52:29.201Z,18.00
2022-10-09T16:55:00.417Z,26.45
2022-10-09T16:57:31.026Z,46.63
2022-10-09T16:59:59.630Z,93.88
2022-10-09T17:02:29.307Z,83.95
2022-10-09T17:04:59.747Z,66.72
2022-10-09T17:07:34.437Z,62.20
2022-10-09T17:10:10.848Z,69.68
2022-10-09T17:12:41.351Z,57.90
2022-10-09T17:15:09.639Z,60.08
2022-10-09T17:17:40.893Z,50.53
2022-10-09T17:20:11.792Z,45.30
2022-10-09T17:22:40.264Z,39.13
2022-10-09T17:25:08.451Z,37.45
2022-10-09T17:27:35.781Z,32.58
2022-10-09T17:30:03.856Z,27.27
2022-10-09T17:32:32.850Z,39.45
2022-10-09T17:35:00.186Z,27.58
2022-10-09T17:37:28.217Z,24.70
2022-10-09T17:39:58.832Z,23.63
2022-10-09T17:42:27.520Z,23.30
2022-10-09T17:44:57.361Z,24.88
2022-10-09T17:47:25.041Z,16.67
2022-10-09T17:49:52.978Z,20.00
2022-10-09T17:52:20.673Z,16.20
2022-10-09T17:54:48.344Z,14.10
2022-10-09T17:57:15.683Z,14.40
2022-10-09T17:59:44.716Z,10.07
2022-10-09T18:02:12.193Z,11.95
2022-10-09T18:04:40.246Z,12.13
2022-10-09T18:07:08.162Z,8.95
2022-10-09T18:09:37.695Z,8.00
2022-10-09T18:12:05.283Z,12.30
2022-10-09T18:14:34.217Z,11.70
2022-10-09T18:17:04.094Z,13.30
2022-10-09T18:19:31.508Z,12.18
2022-10-09T18:21:59.135Z,11.50
2022-10-09T18:24:27.371Z,12.43
2022-10-09T18:26:56.548Z,10.35
2022-10-09T18:29:24.696Z,12.77
2022-10-09T18:31:56.494Z,12.57
2022-10-09T18:34:25.349Z,11.25
2022-10-09T18:36:53.172Z,12.00
2022-10-09T18:39:22.101Z,11.40
2022-10-09T18:41:49.417Z,8.57
2022-10-09T18:44:22.194Z,8.50
2022-10-09T18:46:56.721Z,9.32
2022-10-09T18:49:30.740Z,8.68
2022-10-09T18:52:02.545Z,5.90
2022-10-09T18:54:31.559Z,8.05
2022-10-09T18:56:59.147Z,8.27
2022-10-09T18:59:26.635Z,9.10
2022-10-09T19:01:55.504Z,8.18
2022-10-09T19:04:23.773Z,4.45
2022-10-09T19:06:52.644Z,10.15
2022-10-09T19:09:24.924Z,8.30
2022-10-09T19:11:53.220Z,7.35
2022-10-09T19:14:21.157Z,6.88
2022-10-09T19:16:49.306Z,6.40
2022-10-09T19:19:16.481Z,5.72
2022-10-09T19:21:44.930Z,5.70
2022-10-09T19:24:14.424Z,5.95
2022-10-09T19:26:41.962Z,4.38
2022-10-09T19:29:10.317Z,6.57
2022-10-09T19:31:40.391Z,4.35
2022-10-09T19:34:09.146Z,3.53
2022-10-09T19:36:38.385Z,3.33
2022-10-09T19:39:15.205Z,3.85
2022-10-09T19:41:45.671Z,3.25
2022-10-09T19:44:13.327Z,2.65
2022-10-09T19:46:40.849Z,2.90
2022-10-09T19:49:08.603Z,1.33
2022-10-09T19:51:37.703Z,7.68
2022-10-09T19:54:07.739Z,1.55
2022-10-09T19:56:36.259Z,0.88
2022-10-09T19:59:05.809Z,2.75
2022-10-09T20:01:37.941Z,1.73
2022-10-09T20:04:10.848Z,0.52
2022-10-09T20:06:40.324Z,1.05
2022-10-09T20:09:08.889Z,3.60
2022-10-09T20:11:37.404Z,2.92
2022-10-09T20:14:05.508Z,1.05
2022-10-09T20:16:34.183Z,3.28
2022-10-09T20:19:02.631Z,1.42
2022-10-09T20:21:37.667Z,1.10
2022-10-09T20:24:08.682Z,0.40
2022-10-09T20:26:38.672Z,0.47
2022-10-09T20:29:08.421Z,0.57
2022-10-09T20:31:36.838Z,2.15
2022-10-09T20:34:04.244Z,0.45
2022-10-09T20:36:39.369Z,2.28
2022-10-09T20:39:10.130Z,2.38
2022-10-09T20:41:43.188Z,0.32
2022-10-09T20:44:13.619Z,1.98
2022-10-09T20:46:42.146Z,2.58
2022-10-09T20:49:13.960Z,5.32
2022-10-09T20:51:42.866Z,0.47
2022-10-09T20:54:20.689Z,0.90
2022-10-09T20:56:49.533Z,1.48
2022-10-09T20:59:18.602Z,0.50
2022-10-09T21:01:47.117Z,1.98
2022-10-09T21:04:15.189Z,0.30
2022-10-09T21:06:42.881Z,1.00
2022-10-09T21:09:10.062Z,1.23
2022-10-09T21:11:37.577Z,2.10
2022-10-09T21:14:04.966Z,0.80
2022-10-09T21:16:32.424Z,1.60
2022-10-09T21:19:05.134Z,2.40
2022-10-09T21:21:32.954Z,2.97
2022-10-09T21:24:01.635Z,1.33
2022-10-09T21:26:36.212Z,1.02
2022-10-09T21:29:05.693Z,3.72
2022-10-09T21:31:33.889Z,1.25
2022-10-09T21:34:02.076Z,0.85
2022-10-09T21:36:29.346Z,1.70
2022-10-09T21:38:56.563Z,1.30
2022-10-09T21:41:24.125Z,1.05
2022-10-09T21:43:51.151Z,1.50
2022-10-09T21:46:18.119Z,1.55
2022-10-09T21:48:45.620Z,0.95
2022-10-09T21:51:12.554Z,0.70
2022-10-09T21:53:40.788Z,1.00
2022-10-09T21:56:10.200Z,2.47
2022-10-09T21:58:39.120Z,1.52
2022-10-09T22:01:06.714Z,1.77
2022-10-09T22:03:35.581Z,1.27
2022-10-09T22:06:08.233Z,1.20
2022-10-09T22:08:35.998Z,1.70
2022-10-09T22:11:07.568Z,1.73
2022-10-09T22:13:35.229Z,2.22
2022-10-09T22:16:06.879Z,0.98
2022-10-09T22:18:34.258Z,1.58
2022-10-09T22:21:07.854Z,2.70
2022-10-09T22:23:35.392Z,2.83
2022-10-09T22:26:07.103Z,1.58
2022-10-09T22:28:34.928Z,4.15
2022-10-09T22:31:04.996Z,1.65
2022-10-09T22:33:32.292Z,2.10
2022-10-09T22:36:14.508Z,0.98
2022-10-09T22:38:42.421Z,2.10
2022-10-09T22:41:10.842Z,1.67
2022-10-09T22:43:39.415Z,3.08
2022-10-09T22:46:12.231Z,1.80
2022-10-09T22:48:40.294Z,2.17
2022-10-09T22:51:09.470Z,2.72
2022-10-09T22:53:37.353Z,2.38
2022-10-09T22:56:09.404Z,1.98
2022-10-09T22:58:36.345Z,1.70
2022-10-09T23:01:06.667Z,2.42
2022-10-09T23:03:33.822Z,3.05
2022-10-09T23:06:12.203Z,2.20
2022-10-09T23:08:41.231Z,1.92
2022-10-09T23:11:09.140Z,1.17
2022-10-09T23:13:37.018Z,1.55
2022-10-09T23:16:07.486Z,1.65
2022-10-09T23:18:35.501Z,1.35
2022-10-09T23:21:04.388Z,2.25
2022-10-09T23:23:31.738Z,2.13
2022-10-09T23:25:58.636Z,1.67
2022-10-09T23:28:27.942Z,1.73
2022-10-09T23:31:01.952Z,1.55
2022-10-09T23:33:28.925Z,1.65
2022-10-09T23:35:55.951Z,2.45
2022-10-09T23:38:23.036Z,1.50
2022-10-09T23:41:01.296Z,2.15
2022-10-09T23:43:30.092Z,1.75
2022-10-09T23:46:00.308Z,1.88
2022-10-09T23:48:28.165Z,1.83
2022-10-09T23:50:56.829Z,1.75
2022-10-09T23:53:26.191Z,2.42
2022-10-09T23:55:54.099Z,2.17
2022-10-09T23:58:21.779Z,1.58
